Time;durP1;ratioP1;P1;durP2;ratioP2;P2;SDS_P1;SDS_P2;PMS_P1;PMS_P2;Temp;Humidity;BMP_temperature;BMP_pressure;BME280_temperature;BME280_humidity;BME280_pressure;Samples;Min_cycle;Max_cycle;Signal;HPM_P1;HPM_P2
2022/06/14 00:01:58;;;;;;;10.48;2.88;;;;;;;;;;5011770;28;20062;-73
2022/06/14 00:04:24;;;;;;;10.38;2.47;;;;;;;;;;5011882;28;20065;-73
2022/06/14 00:06:50;;;;;;;10.73;3.67;;;;;;;;;;5031294;28;20036;-73
2022/06/14 00:09:17;;;;;;;9.48;2.95;;;;;;;;;;5031639;28;20021;-73
2022/06/14 00:11:46;;;;;;;7.05;3.33;;;;;;;;;;5031635;28;20025;-73
2022/06/14 00:14:12;;;;;;;8.27;2.63;;;;;;;;;;5031628;28;20395;-73
2022/06/14 00:16:38;;;;;;;10.10;3.00;;;;;;;;;;5031599;28;20353;-73
2022/06/14 00:19:05;;;;;;;12.52;3.22;;;;;;;;;;5031570;28;20376;-73
2022/06/14 00:21:32;;;;;;;10.13;2.90;;;;;;;;;;5031561;28;20032;-73
2022/06/14 00:23:59;;;;;;;8.52;2.60;;;;;;;;;;5031497;28;20781;-73
2022/06/14 00:26:25;;;;;;;8.88;2.65;;;;;;;;;;5031481;28;20379;-73
2022/06/14 00:28:51;;;;;;;6.97;2.72;;;;;;;;;;5031465;28;20515;-73
2022/06/14 00:31:19;;;;;;;7.97;2.97;;;;;;;;;;5021039;28;20068;-73
2022/06/14 00:33:46;;;;;;;7.00;2.58;;;;;;;;;;5011687;28;20168;-73
2022/06/14 00:36:28;;;;;;;8.18;2.90;;;;;;;;;;5011834;28;20084;-73
2022/06/14 00:38:54;;;;;;;13.27;2.67;;;;;;;;;;5011761;28;20034;-73
2022/06/14 00:41:39;;;;;;;8.20;3.42;;;;;;;;;;5011532;28;20444;-73
2022/06/14 00:44:05;;;;;;;7.30;2.55;;;;;;;;;;5012116;28;20034;-73
2022/06/14 00:46:52;;;;;;;7.60;2.85;;;;;;;;;;5015536;28;20018;-73
2022/06/14 00:49:24;;;;;;;11.23;2.90;;;;;;;;;;4999088;28;20468;-73
2022/06/14 00:52:26;;;;;;;6.00;2.63;;;;;;;;;;4993258;28;20051;-73
2022/06/14 00:54:56;;;;;;;8.65;2.45;;;;;;;;;;4935459;29;20039;-73
2022/06/14 00:57:25;;;;;;;8.73;2.88;;;;;;;;;;4935411;29;20107;-73
2022/06/14 00:59:54;;;;;;;7.00;2.67;;;;;;;;;;4935209;29;20189;-73
2022/06/14 01:02:26;;;;;;;9.20;2.47;;;;;;;;;;4935194;29;20103;-73
2022/06/14 01:04:53;;;;;;;12.88;4.50;;;;;;;;;;4938282;29;20106;-73
2022/06/14 01:07:21;;;;;;;10.20;2.85;;;;;;;;;;4954482;29;20051;-73
2022/06/14 01:09:52;;;;;;;7.38;2.80;;;;;;;;;;4954325;29;20043;-73
2022/06/14 01:12:19;;;;;;;7.95;2.70;;;;;;;;;;4954072;29;20119;-73
2022/06/14 01:14:48;;;;;;;7.25;2.47;;;;;;;;;;4954112;28;20429;-73
2022/06/14 01:17:14;;;;;;;11.23;2.60;;;;;;;;;;4954108;29;20406;-73
2022/06/14 01:19:41;;;;;;;7.10;2.50;;;;;;;;;;4954013;29;20043;-73
2022/06/14 01:22:07;;;;;;;8.70;2.80;;;;;;;;;;4954119;29;20039;-73
2022/06/14 01:24:33;;;;;;;15.48;3.22;;;;;;;;;;4954090;29;20046;-73
2022/06/14 01:27:00;;;;;;;7.90;3.08;;;;;;;;;;4939605;29;20052;-73
2022/06/14 01:29:27;;;;;;;6.75;2.55;;;;;;;;;;4980065;28;20042;-73
2022/06/14 01:31:58;;;;;;;9.27;3.25;;;;;;;;;;5005553;28;20030;-73
2022/06/14 01:34:24;;;;;;;8.60;3.05;;;;;;;;;;5014609;28;20465;-73
2022/06/14 01:36:51;;;;;;;8.40;3.00;;;;;;;;;;5014675;28;20025;-73
2022/06/14 01:39:18;;;;;;;11.90;3.35;;;;;;;;;;5014504;28;20059;-73
2022/06/14 01:41:56;;;;;;;17.88;3.85;;;;;;;;;;5014273;28;20127;-73
2022/06/14 01:44:40;;;;;;;10.20;3.30;;;;;;;;;;5014442;28;20037;-73
2022/06/14 01:47:12;;;;;;;10.70;3.33;;;;;;;;;;5014321;28;20026;-73
2022/06/14 01:52:45;;;;;;;17.30;3.25;;;;;;;;;;5054213;28;20044;-73
2022/06/14 01:55:11;;;;;;;16.83;3.38;;;;;;;;;;5053756;28;20017;-73
2022/06/14 01:57:54;;;;;;;12.50;3.20;;;;;;;;;;5052766;28;20021;-73
2022/06/14 02:00:25;;;;;;;14.90;3.20;;;;;;;;;;5053691;28;20076;-73
2022/06/14 02:05:53;;;;;;;6.63;3.13;;;;;;;;;;5053504;28;20095;-73
2022/06/14 02:08:21;;;;;;;11.60;2.58;;;;;;;;;;5053608;28;20108;-73
2022/06/14 02:10:54;;;;;;;10.15;3.30;;;;;;;;;;5053254;28;20489;-73
2022/06/14 02:13:26;;;;;;;10.10;2.33;;;;;;;;;;5053607;28;20021;-73
2022/06/14 02:15:51;;;;;;;12.77;2.88;;;;;;;;;;5053160;28;20126;-73
2022/06/14 02:18:36;;;;;;;11.48;3.58;;;;;;;;;;5053318;28;20029;-73
2022/06/14 02:21:06;;;;;;;10.32;2.58;;;;;;;;;;5053271;28;20053;-73
2022/06/14 02:23:34;;;;;;;9.20;2.95;;;;;;;;;;5053119;28;20036;-73
2022/06/14 02:26:23;;;;;;;8.85;2.95;;;;;;;;;;5053180;28;20029;-73
2022/06/14 02:28:55;;;;;;;11.57;3.55;;;;;;;;;;5053040;28;20099;-73
2022/06/14 02:31:21;;;;;;;;;;;;;;;;;;5048975;28;20036;-73
2022/06/14 02:33:50;;;;;;;8.30;2.83;;;;;;;;;;5052952;28;19908;-73
2022/06/14 02:36:20;;;;;;;6.30;2.53;;;;;;;;;;5052943;28;20032;-73
2022/06/14 02:38:51;;;;;;;14.13;3.22;;;;;;;;;;5053015;28;20433;-73
2022/06/14 02:41:26;;;;;;;8.75;2.58;;;;;;;;;;5052809;28;20021;-73
2022/06/14 02:43:59;;;;;;;9.57;2.85;;;;;;;;;;5052777;28;20033;-73
2022/06/14 02:46:34;;;;;;;8.88;2.38;;;;;;;;;;5052705;28;20363;-73
2022/06/14 02:49:03;;;;;;;7.03;2.95;;;;;;;;;;5052434;28;20040;-73
2022/06/14 02:51:41;;;;;;;11.77;3.40;;;;;;;;;;5052536;28;20124;-72
2022/06/14 02:54:11;;;;;;;11.70;2.75;;;;;;;;;;5052572;28;20060;-73
2022/06/14 02:56:42;;;;;;;9.90;3.30;;;;;;;;;;5052374;28;20104;-73
2022/06/14 02:59:13;;;;;;;7.43;3.15;;;;;;;;;;5052540;28;20387;-72
2022/06/14 03:01:45;;;;;;;6.57;2.92;;;;;;;;;;5052284;28;20052;-72
2022/06/14 03:04:16;;;;;;;10.85;3.25;;;;;;;;;;5052803;28;20032;-72
2022/06/14 03:06:57;;;;;;;9.55;2.83;;;;;;;;;;5034035;28;20041;-72
2022/06/14 03:09:24;;;;;;;9.18;2.67;;;;;;;;;;5032996;28;20036;-72
2022/06/14 03:11:59;;;;;;;9.48;2.75;;;;;;;;;;5052271;28;20382;-72
2022/06/14 03:14:49;;;;;;;11.00;3.03;;;;;;;;;;5051931;28;20122;-73
2022/06/14 03:17:34;;;;;;;10.57;2.85;;;;;;;;;;5051679;28;20379;-72
2022/06/14 03:20:12;;;;;;;12.40;3.13;;;;;;;;;;5051230;28;20017;-72
2022/06/14 03:23:04;;;;;;;8.65;2.72;;;;;;;;;;5051839;28;20047;-72
2022/06/14 03:25:33;;;;;;;13.00;3.30;;;;;;;;;;5024128;28;20025;-72
2022/06/14 03:28:28;;;;;;;11.88;3.28;;;;;;;;;;5051620;28;20029;-72
2022/06/14 03:31:01;;;;;;;6.70;2.53;;;;;;;;;;5007918;28;20161;-72
2022/06/14 03:33:37;;;;;;;7.63;2.97;;;;;;;;;;5007117;28;20037;-72
2022/06/14 03:36:05;;;;;;;6.00;3.00;;;;;;;;;;5009414;28;20032;-72
2022/06/14 03:38:51;;;;;;;6.93;2.75;;;;;;;;;;5009444;28;20468;-73
2022/06/14 03:41:21;;;;;;;9.70;2.75;;;;;;;;;;5008064;28;20110;-72
2022/06/14 03:43:47;;;;;;;11.48;3.10;;;;;;;;;;5009437;28;20547;-72
2022/06/14 03:46:22;;;;;;;8.90;2.75;;;;;;;;;;5009304;28;20580;-72
2022/06/14 03:48:51;;;;;;;8.45;3.38;;;;;;;;;;5009174;28;20099;-72
2022/06/14 03:51:19;;;;;;;8.60;2.95;;;;;;;;;;5009157;28;20038;-72
2022/06/14 03:53:48;;;;;;;13.18;2.90;;;;;;;;;;5009181;28;20057;-72
2022/06/14 03:56:20;;;;;;;8.88;2.70;;;;;;;;;;5009139;28;20122;-72
2022/06/14 03:58:52;;;;;;;8.70;2.90;;;;;;;;;;5009357;28;20049;-72
2022/06/14 04:01:23;;;;;;;9.68;3.05;;;;;;;;;;5009039;28;20137;-72
2022/06/14 04:04:13;;;;;;;10.40;2.60;;;;;;;;;;5009038;28;20061;-72
2022/06/14 04:06:42;;;;;;;6.30;2.63;;;;;;;;;;5017121;28;20053;-73
2022/06/14 04:09:08;;;;;;;8.05;2.55;;;;;;;;;;5048799;28;20178;-72
2022/06/14 04:11:40;;;;;;;8.13;3.75;;;;;;;;;;5050908;28;20039;-72
2022/06/14 04:14:15;;;;;;;7.05;2.83;;;;;;;;;;5048440;28;20013;-72
2022/06/14 04:16:57;;;;;;;7.90;3.15;;;;;;;;;;5051015;28;20483;-72
2022/06/14 04:19:29;;;;;;;9.45;3.25;;;;;;;;;;5051880;28;20515;-72
2022/06/14 04:21:57;;;;;;;18.48;4.70;;;;;;;;;;5052690;28;20024;-72
2022/06/14 04:24:30;;;;;;;10.90;3.03;;;;;;;;;;5055048;28;20491;-72
2022/06/14 04:27:17;;;;;;;14.55;3.00;;;;;;;;;;5052614;28;20021;-72
2022/06/14 04:29:54;;;;;;;14.43;3.22;;;;;;;;;;5049268;28;20025;-72
2022/06/14 04:32:26;;;;;;;15.35;3.28;;;;;;;;;;5036193;28;20379;-72
2022/06/14 04:34:52;;;;;;;;;;;;;;;;;;5047263;28;20032;-72
2022/06/14 04:37:22;;;;;;;9.50;2.67;;;;;;;;;;5055253;28;19909;-72
2022/06/14 04:39:53;;;;;;;18.25;4.30;;;;;;;;;;5055095;28;20074;-72
2022/06/14 04:42:23;;;;;;;10.35;3.03;;;;;;;;;;5055059;28;20075;-72
2022/06/14 04:45:05;;;;;;;9.95;2.70;;;;;;;;;;5055016;28;20029;-72
2022/06/14 04:47:38;;;;;;;11.30;3.05;;;;;;;;;;5055031;28;20098;-72
2022/06/14 04:50:11;;;;;;;12.80;3.17;;;;;;;;;;5054652;28;20049;-72
2022/06/14 04:52:40;;;;;;;16.23;3.33;;;;;;;;;;5055052;28;20021;-73
2022/06/14 04:55:09;;;;;;;18.60;3.70;;;;;;;;;;5054917;28;20021;-73
2022/06/14 04:57:48;;;;;;;13.15;3.08;;;;;;;;;;5054738;28;20468;-73
2022/06/14 05:00:17;;;;;;;15.90;3.30;;;;;;;;;;5054742;28;20529;-72
2022/06/14 05:02:49;;;;;;;9.95;3.00;;;;;;;;;;5054526;28;20036;-72
2022/06/14 05:05:24;;;;;;;9.77;3.17;;;;;;;;;;5048039;28;20036;-73
2022/06/14 05:07:53;;;;;;;17.63;5.50;;;;;;;;;;5034712;28;20028;-72
2022/06/14 05:10:22;;;;;;;7.50;3.22;;;;;;;;;;5034667;28;20029;-72
2022/06/14 05:12:52;;;;;;;12.85;4.10;;;;;;;;;;5034649;28;20407;-72
2022/06/14 05:15:27;;;;;;;5.97;2.60;;;;;;;;;;5043631;28;20471;-73
2022/06/14 05:18:08;;;;;;;9.82;2.95;;;;;;;;;;5054334;28;20163;-72
2022/06/14 05:20:54;;;;;;;9.85;3.08;;;;;;;;;;5054304;28;20035;-73
2022/06/14 05:23:23;;;;;;;10.85;3.50;;;;;;;;;;5046563;28;20043;-73
2022/06/14 05:26:01;;;;;;;11.82;3.53;;;;;;;;;;5053839;28;20459;-73
2022/06/14 05:28:46;;;;;;;12.90;4.45;;;;;;;;;;5051875;28;20100;-73
2022/06/14 05:31:12;;;;;;;10.75;2.80;;;;;;;;;;5051300;28;20029;-73
2022/06/14 05:33:41;;;;;;;16.27;3.45;;;;;;;;;;5052467;28;20021;-73
2022/06/14 05:36:11;;;;;;;9.93;2.80;;;;;;;;;;5053753;28;20120;-73
2022/06/14 05:39:04;;;;;;;16.52;3.05;;;;;;;;;;5053855;28;20075;-72
2022/06/14 05:41:36;;;;;;;9.63;2.72;;;;;;;;;;5011770;28;20041;-73
2022/06/14 05:44:08;;;;;;;18.50;2.83;;;;;;;;;;4995456;28;20040;-73
2022/06/14 05:46:35;;;;;;;22.48;2.67;;;;;;;;;;5011768;28;20153;-73
2022/06/14 05:49:05;;;;;;;11.20;3.10;;;;;;;;;;5011837;28;20056;-73
2022/06/14 05:51:51;;;;;;;10.07;2.60;;;;;;;;;;5012218;28;20037;-73
2022/06/14 05:54:26;;;;;;;9.38;2.15;;;;;;;;;;5011625;28;20061;-73
2022/06/14 05:56:55;;;;;;;12.45;2.55;;;;;;;;;;5011585;28;20041;-73
2022/06/14 05:59:24;;;;;;;11.25;2.70;;;;;;;;;;5011611;28;20040;-73
2022/06/14 06:01:59;;;;;;;14.00;2.90;;;;;;;;;;5011658;28;20113;-73
2022/06/14 06:04:32;;;;;;;13.57;2.50;;;;;;;;;;5010760;28;20481;-72
2022/06/14 06:07:00;;;;;;;6.07;2.40;;;;;;;;;;4992125;28;20113;-73
2022/06/14 06:09:33;;;;;;;13.40;2.30;;;;;;;;;;4991808;28;20042;-73
2022/06/14 06:11:59;;;;;;;;;;;;;;;;;;4992356;28;20517;-73
2022/06/14 06:14:31;;;;;;;13.05;1.83;;;;;;;;;;4996312;28;19940;-72
2022/06/14 06:17:04;;;;;;;13.57;2.33;;;;;;;;;;5010427;28;20462;-72
2022/06/14 06:19:33;;;;;;;9.30;2.00;;;;;;;;;;5053449;28;20033;-73
2022/06/14 06:22:06;;;;;;;10.85;1.88;;;;;;;;;;5053276;28;20036;-73
2022/06/14 06:24:44;;;;;;;8.10;2.10;;;;;;;;;;5053341;28;20116;-73
2022/06/14 06:27:11;;;;;;;7.47;1.92;;;;;;;;;;5053138;28;20028;-73
2022/06/14 06:29:52;;;;;;;11.57;2.00;;;;;;;;;;5052949;28;20056;-72
2022/06/14 06:32:19;;;;;;;9.53;1.57;;;;;;;;;;5052946;28;20471;-73
2022/06/14 06:34:45;;;;;;;7.45;1.70;;;;;;;;;;5053043;28;20399;-73
2022/06/14 06:37:18;;;;;;;4.65;1.35;;;;;;;;;;5052392;28;20025;-72
2022/06/14 06:39:44;;;;;;;;;;;;;;;;;;5053134;28;20381;-73
2022/06/14 06:42:10;;;;;;;9.23;1.50;;;;;;;;;;5052024;28;19904;-73
2022/06/14 06:44:36;;;;;;;10.48;1.77;;;;;;;;;;5052642;28;20021;-72
2022/06/14 06:47:07;;;;;;;6.05;1.63;;;;;;;;;;5052772;28;20021;-74
2022/06/14 06:49:38;;;;;;;6.53;1.50;;;;;;;;;;5052621;28;20049;-73
2022/06/14 06:52:05;;;;;;;7.85;1.40;;;;;;;;;;5051259;28;20429;-74
2022/06/14 06:54:41;;;;;;;8.45;1.73;;;;;;;;;;5052895;28;20021;-74
2022/06/14 06:57:07;;;;;;;8.48;1.60;;;;;;;;;;5052802;28;20029;-74
2022/06/14 06:59:39;;;;;;;9.88;1.60;;;;;;;;;;5052689;28;20017;-74
2022/06/14 07:02:13;;;;;;;5.43;1.27;;;;;;;;;;5052695;28;20456;-74
2022/06/14 07:08:03;;;;;;;6.47;1.30;;;;;;;;;;5052181;28;20036;-74
2022/06/14 07:10:36;;;;;;;4.43;1.25;;;;;;;;;;4965880;28;20030;-74
2022/06/14 07:13:05;;;;;;;9.80;1.88;;;;;;;;;;4970223;28;20069;-74
2022/06/14 07:15:31;;;;;;;6.15;1.35;;;;;;;;;;4970311;28;20066;-74
2022/06/14 07:18:01;;;;;;;5.68;1.17;;;;;;;;;;4970867;28;20617;-74
2022/06/14 07:20:36;;;;;;;6.30;1.33;;;;;;;;;;4970620;28;20057;-74
2022/06/14 07:23:06;;;;;;;6.53;1.20;;;;;;;;;;4970674;28;20667;-74
2022/06/14 07:25:40;;;;;;;5.60;1.48;;;;;;;;;;4970598;28;20035;-74
2022/06/14 07:28:12;;;;;;;6.30;1.67;;;;;;;;;;4970673;28;20046;-74
2022/06/14 07:30:44;;;;;;;9.75;1.75;;;;;;;;;;4970609;28;20049;-73
2022/06/14 07:33:11;;;;;;;8.93;1.48;;;;;;;;;;4971031;28;20045;-73
2022/06/14 07:35:46;;;;;;;5.20;1.30;;;;;;;;;;4970701;28;20039;-73
2022/06/14 07:38:18;;;;;;;11.05;1.63;;;;;;;;;;4970439;28;20097;-73
2022/06/14 07:40:47;;;;;;;3.33;1.25;;;;;;;;;;4991981;28;20041;-73
2022/06/14 07:43:39;;;;;;;3.75;1.30;;;;;;;;;;5051721;28;20029;-73
2022/06/14 07:46:08;;;;;;;6.53;1.35;;;;;;;;;;5048763;28;20140;-73
2022/06/14 07:48:40;;;;;;;7.65;1.90;;;;;;;;;;5051647;28;20056;-73
2022/06/14 07:51:09;;;;;;;9.00;1.80;;;;;;;;;;5051788;28;20025;-73
2022/06/14 07:53:48;;;;;;;5.50;1.60;;;;;;;;;;5051378;28;20460;-73
2022/06/14 07:56:14;;;;;;;6.25;1.50;;;;;;;;;;5051758;28;20079;-73
2022/06/14 07:58:59;;;;;;;2.75;1.20;;;;;;;;;;5050503;28;20028;-74
2022/06/14 08:01:31;;;;;;;4.20;1.40;;;;;;;;;;5051673;28;20053;-73
2022/06/14 08:04:02;;;;;;;9.70;1.45;;;;;;;;;;5051135;28;20025;-73
2022/06/14 08:06:31;;;;;;;6.07;1.38;;;;;;;;;;5049856;28;20052;-73
2022/06/14 08:09:03;;;;;;;5.13;1.80;;;;;;;;;;5051443;28;20480;-73
2022/06/14 08:11:31;;;;;;;4.43;1.13;;;;;;;;;;5051682;28;20024;-73
2022/06/14 08:14:03;;;;;;;7.25;1.65;;;;;;;;;;5051518;28;20027;-73
2022/06/14 08:16:29;;;;;;;3.85;1.30;;;;;;;;;;5050262;28;20071;-72
2022/06/14 08:18:59;;;;;;;6.10;1.50;;;;;;;;;;5050898;28;20067;-74
2022/06/14 08:21:25;;;;;;;5.53;1.25;;;;;;;;;;5049199;28;20025;-72
2022/06/14 08:23:54;;;;;;;6.35;1.70;;;;;;;;;;5050713;28;20737;-74
2022/06/14 08:26:26;;;;;;;6.80;1.80;;;;;;;;;;5050973;28;20039;-71
2022/06/14 08:28:52;;;;;;;147.07;28.20;;;;;;;;;;5051160;28;20114;-73
2022/06/14 08:31:37;;;;;;;44.85;9.48;;;;;;;;;;5049126;28;20589;-73
2022/06/14 08:34:15;;;;;;;24.30;6.15;;;;;;;;;;5049790;28;20129;-73
2022/06/14 08:36:47;;;;;;;37.75;8.20;;;;;;;;;;5050881;28;20100;-73
2022/06/14 08:39:17;;;;;;;7.90;1.80;;;;;;;;;;5051390;28;20092;-73
2022/06/14 08:41:46;;;;;;;61.28;9.93;;;;;;;;;;5051051;28;20029;-73
2022/06/14 08:44:16;;;;;;;17.88;2.97;;;;;;;;;;5051361;28;20424;-73
2022/06/14 08:46:51;;;;;;;9.98;1.90;;;;;;;;;;5051203;28;20112;-72
2022/06/14 08:49:26;;;;;;;5.00;1.70;;;;;;;;;;5051148;28;20106;-73
2022/06/14 08:51:52;;;;;;;8.77;2.00;;;;;;;;;;5051213;28;20435;-72
2022/06/14 08:54:18;;;;;;;6.80;1.52;;;;;;;;;;5049717;28;20048;-72
2022/06/14 08:56:47;;;;;;;3.58;1.70;;;;;;;;;;5050508;28;20675;-75
2022/06/14 08:59:17;;;;;;;7.93;1.48;;;;;;;;;;5050857;28;20021;-72
2022/06/14 09:01:52;;;;;;;14.20;1.42;;;;;;;;;;5050728;28;20536;-72
2022/06/14 09:04:37;;;;;;;7.03;1.40;;;;;;;;;;5049404;28;20075;-73
2022/06/14 09:07:12;;;;;;;5.60;1.10;;;;;;;;;;5043674;28;20036;-73
2022/06/14 09:09:38;;;;;;;4.15;1.52;;;;;;;;;;5054912;28;20032;-73
2022/06/14 09:12:33;;;;;;;9.25;1.30;;;;;;;;;;5054656;28;20033;-73
2022/06/14 09:15:26;;;;;;;5.00;1.13;;;;;;;;;;5012703;28;20092;-73
2022/06/14 09:17:52;;;;;;;5.43;1.30;;;;;;;;;;5012637;28;20580;-73
2022/06/14 09:20:38;;;;;;;7.88;1.10;;;;;;;;;;5012579;28;20117;-71
2022/06/14 09:23:18;;;;;;;6.82;0.98;;;;;;;;;;5012695;28;20033;-73
2022/06/14 09:26:05;;;;;;;6.55;0.90;;;;;;;;;;5003217;28;20066;-73
2022/06/14 09:28:49;;;;;;;6.22;1.33;;;;;;;;;;5011879;28;20627;-73
2022/06/14 09:31:16;;;;;;;4.75;0.98;;;;;;;;;;5010728;28;20149;-73
2022/06/14 09:33:45;;;;;;;5.57;1.27;;;;;;;;;;5011492;28;20180;-73
2022/06/14 09:36:16;;;;;;;7.72;1.77;;;;;;;;;;5006170;28;20124;-73
2022/06/14 09:38:54;;;;;;;6.03;1.60;;;;;;;;;;5000807;28;20534;-73
2022/06/14 09:41:26;;;;;;;7.80;1.50;;;;;;;;;;4991672;28;20396;-73
2022/06/14 09:43:59;;;;;;;6.05;1.23;;;;;;;;;;5000809;28;20025;-73
2022/06/14 09:46:25;;;;;;;5.18;1.38;;;;;;;;;;5000484;28;20072;-72
2022/06/14 09:49:12;;;;;;;4.65;1.65;;;;;;;;;;5001489;28;20050;-73
2022/06/14 09:51:53;;;;;;;4.05;1.15;;;;;;;;;;4973370;28;20046;-70
2022/06/14 09:54:21;;;;;;;7.40;1.42;;;;;;;;;;4991404;28;20045;-74
2022/06/14 09:57:06;;;;;;;3.78;1.17;;;;;;;;;;4992030;28;20505;-76
2022/06/14 09:59:35;;;;;;;4.50;1.13;;;;;;;;;;4991020;28;20038;-76
2022/06/14 10:02:14;;;;;;;4.18;1.35;;;;;;;;;;4993154;28;20022;-77
2022/06/14 10:05:05;;;;;;;4.57;1.00;;;;;;;;;;4991942;28;20070;-76
2022/06/14 10:07:54;;;;;;;4.45;1.23;;;;;;;;;;4991926;28;20601;-76
2022/06/14 10:10:23;;;;;;;6.25;1.30;;;;;;;;;;4986747;28;20517;-75
2022/06/14 10:13:08;;;;;;;4.15;1.40;;;;;;;;;;4991970;28;20587;-75
2022/06/14 10:15:36;;;;;;;4.13;1.27;;;;;;;;;;4992371;28;20046;-75
2022/06/14 10:18:12;;;;;;;3.72;1.00;;;;;;;;;;4991171;28;20058;-75
2022/06/14 10:20:38;;;;;;;7.85;1.30;;;;;;;;;;4989617;28;20066;-75
2022/06/14 10:23:16;;;;;;;6.28;1.33;;;;;;;;;;4991931;28;20125;-75
2022/06/14 10:28:58;;;;;;;6.68;1.25;;;;;;;;;;4956538;28;20185;-75
2022/06/14 10:31:24;;;;;;;7.40;1.38;;;;;;;;;;4971669;28;20110;-76
2022/06/14 10:33:50;;;;;;;17.27;1.55;;;;;;;;;;4972183;28;20026;-77
2022/06/14 10:36:35;;;;;;;3.80;1.50;;;;;;;;;;4972351;28;20042;-77
2022/06/14 10:39:20;;;;;;;4.05;1.30;;;;;;;;;;4972012;28;20421;-76
2022/06/14 10:41:53;;;;;;;6.15;1.02;;;;;;;;;;4971739;28;20031;-76
2022/06/14 10:44:40;;;;;;;5.20;1.30;;;;;;;;;;4972882;28;20114;-77
2022/06/14 10:47:20;;;;;;;7.68;1.42;;;;;;;;;;4956198;28;20081;-76
2022/06/14 10:49:46;;;;;;;4.88;1.50;;;;;;;;;;4972653;28;20058;-76
2022/06/14 10:52:21;;;;;;;2.50;0.95;;;;;;;;;;4972209;28;20038;-73
2022/06/14 10:55:06;;;;;;;5.45;1.38;;;;;;;;;;4972163;28;20027;-73
2022/06/14 10:57:37;;;;;;;2.35;1.10;;;;;;;;;;4972524;28;20121;-73
2022/06/14 11:00:22;;;;;;;2.45;1.13;;;;;;;;;;4965860;28;20031;-73
2022/06/14 11:02:59;;;;;;;6.57;1.35;;;;;;;;;;4962555;28;20062;-74
2022/06/14 11:05:37;;;;;;;4.43;0.95;;;;;;;;;;5048005;28;20075;-71
2022/06/14 11:08:12;;;;;;;4.47;0.85;;;;;;;;;;5049735;28;20024;-74
2022/06/14 11:10:59;;;;;;;5.00;0.70;;;;;;;;;;5052396;28;20074;-74
2022/06/14 11:13:43;;;;;;;4.65;0.90;;;;;;;;;;5009774;28;20057;-74
2022/06/14 11:16:44;;;;;;;1.83;0.60;;;;;;;;;;5009574;28;20447;-74
2022/06/14 11:19:31;;;;;;;4.15;0.90;;;;;;;;;;4952126;29;20075;-74
2022/06/14 11:22:03;;;;;;;5.28;0.90;;;;;;;;;;4943404;29;20116;-73
2022/06/14 11:24:35;;;;;;;4.00;0.90;;;;;;;;;;4941374;29;20062;-73
2022/06/14 11:27:17;;;;;;;3.45;0.90;;;;;;;;;;4948861;29;20123;-73
2022/06/14 11:29:43;;;;;;;5.43;1.00;;;;;;;;;;4945074;28;20244;-72
2022/06/14 11:32:23;;;;;;;4.65;1.40;;;;;;;;;;4948493;29;20070;-73
2022/06/14 11:34:55;;;;;;;5.72;0.82;;;;;;;;;;4950390;29;20749;-73
2022/06/14 11:37:36;;;;;;;7.82;1.45;;;;;;;;;;4951022;29;20140;-73
2022/06/14 11:40:15;;;;;;;4.43;1.05;;;;;;;;;;4950420;29;20062;-73
2022/06/14 11:42:55;;;;;;;3.63;1.00;;;;;;;;;;4950339;29;20382;-73
2022/06/14 11:45:41;;;;;;;4.93;1.65;;;;;;;;;;4950715;29;20038;-73
2022/06/14 11:48:14;;;;;;;4.38;1.00;;;;;;;;;;4950224;29;20536;-73
2022/06/14 11:50:45;;;;;;;3.70;0.90;;;;;;;;;;4960851;28;20047;-73
2022/06/14 11:53:11;;;;;;;2.72;1.00;;;;;;;;;;4969911;28;20023;-73
2022/06/14 11:55:39;;;;;;;4.07;0.93;;;;;;;;;;5040507;28;20369;-73
2022/06/14 11:58:27;;;;;;;6.78;1.00;;;;;;;;;;5050439;28;20017;-73
2022/06/14 12:01:03;;;;;;;5.20;1.15;;;;;;;;;;5048445;28;20028;-73
2022/06/14 12:03:48;;;;;;;4.57;0.93;;;;;;;;;;5049151;28;20025;-73
2022/06/14 12:06:20;;;;;;;4.50;1.00;;;;;;;;;;5046514;28;20086;-73
2022/06/14 12:08:46;;;;;;;;;;;;;;;;;;5050814;28;20035;-73
2022/06/14 12:11:24;;;;;;;6.90;1.05;;;;;;;;;;5050520;28;19909;-73
2022/06/14 12:14:03;;;;;;;4.90;1.00;;;;;;;;;;5048195;28;20074;-73
2022/06/14 12:17:01;;;;;;;3.38;1.05;;;;;;;;;;5050248;28;20367;-73
2022/06/14 12:19:31;;;;;;;3.15;0.90;;;;;;;;;;5008316;28;20030;-73
2022/06/14 12:21:57;;;;;;;3.78;1.10;;;;;;;;;;5008221;28;20117;-73
2022/06/14 12:26:34;;;;;;;6.13;1.17;;;;;;;;;;5008273;28;20574;-73
2022/06/14 12:27:18;;;;;;;7.63;1.27;;;;;;;;;;5008406;28;20373;-73
2022/06/14 12:29:45;;;;;;;4.20;0.80;;;;;;;;;;5008213;28;20152;-73
2022/06/14 12:32:25;;;;;;;4.85;1.40;;;;;;;;;;5007774;28;20037;-73
2022/06/14 12:34:54;;;;;;;8.80;1.30;;;;;;;;;;5008350;28;20048;-73
2022/06/14 12:37:29;;;;;;;6.97;1.33;;;;;;;;;;5008489;28;20026;-73
2022/06/14 12:39:55;;;;;;;4.43;1.30;;;;;;;;;;5008282;28;20169;-73
2022/06/14 12:42:30;;;;;;;5.07;1.30;;;;;;;;;;5011616;28;20033;-73
2022/06/14 12:44:59;;;;;;;4.20;1.10;;;;;;;;;;5012756;28;20798;-72
2022/06/14 12:47:27;;;;;;;3.05;0.80;;;;;;;;;;5012837;28;20480;-73
2022/06/14 12:49:56;;;;;;;6.88;1.23;;;;;;;;;;5013138;28;20058;-72
2022/06/14 12:52:27;;;;;;;2.05;0.85;;;;;;;;;;5013201;28;20034;-72
2022/06/14 12:54:58;;;;;;;11.68;0.98;;;;;;;;;;5031539;28;20041;-73
2022/06/14 12:57:42;;;;;;;3.28;0.98;;;;;;;;;;5055152;28;20187;-74
2022/06/14 13:00:09;;;;;;;3.78;0.73;;;;;;;;;;5054307;28;20031;-71
2022/06/14 13:02:44;;;;;;;3.78;1.17;;;;;;;;;;5053222;28;20475;-72
2022/06/14 13:05:10;;;;;;;3.45;0.98;;;;;;;;;;5054831;28;20103;-71
2022/06/14 13:07:46;;;;;;;3.78;1.00;;;;;;;;;;5051744;28;20080;-72
2022/06/14 13:10:28;;;;;;;3.85;1.13;;;;;;;;;;5054886;28;20021;-72
2022/06/14 13:13:04;;;;;;;8.48;0.82;;;;;;;;;;5054808;28;20027;-72
2022/06/14 13:15:34;;;;;;;1.88;0.77;;;;;;;;;;5054470;28;20028;-72
2022/06/14 13:18:07;;;;;;;4.93;1.30;;;;;;;;;;5054633;28;20025;-72
2022/06/14 13:20:42;;;;;;;6.00;1.00;;;;;;;;;;5054911;28;20032;-72
2022/06/14 13:23:21;;;;;;;4.57;1.10;;;;;;;;;;5053139;28;20021;-72
2022/06/14 13:25:58;;;;;;;3.05;0.90;;;;;;;;;;5054132;28;20020;-72
2022/06/14 13:28:40;;;;;;;3.58;1.00;;;;;;;;;;5054343;28;20029;-72
2022/06/14 13:31:26;;;;;;;1.90;0.70;;;;;;;;;;5053773;28;20025;-72
2022/06/14 13:34:09;;;;;;;2.42;0.70;;;;;;;;;;5051874;28;20013;-73
2022/06/14 13:36:54;;;;;;;3.42;0.93;;;;;;;;;;5053394;28;20059;-72
2022/06/14 13:39:32;;;;;;;2.88;1.08;;;;;;;;;;5053463;28;20395;-72
2022/06/14 13:42:02;;;;;;;2.83;0.88;;;;;;;;;;5054845;28;20033;-72
2022/06/14 13:44:35;;;;;;;3.55;0.85;;;;;;;;;;5054098;28;20399;-73
2022/06/14 13:47:03;;;;;;;6.30;1.20;;;;;;;;;;5054366;28;20025;-73
2022/06/14 13:49:29;;;;;;;3.53;0.88;;;;;;;;;;5053810;28;20119;-73
2022/06/14 13:52:05;;;;;;;2.03;0.68;;;;;;;;;;5053052;28;20388;-72
2022/06/14 13:54:44;;;;;;;2.60;0.90;;;;;;;;;;5053826;28;20033;-73
2022/06/14 13:57:32;;;;;;;5.85;1.02;;;;;;;;;;5054083;28;20052;-72
2022/06/14 14:00:04;;;;;;;5.55;1.10;;;;;;;;;;5052799;28;20013;-72
2022/06/14 14:02:30;;;;;;;;;;;;;;;;;;5053403;28;20059;-73
2022/06/14 14:05:06;;;;;;;3.28;0.82;;;;;;;;;;5053403;28;19948;-73
2022/06/14 14:07:42;;;;;;;3.38;0.93;;;;;;;;;;5053118;28;20029;-72
2022/06/14 14:10:11;;;;;;;2.42;0.80;;;;;;;;;;5051690;28;20432;-73
2022/06/14 14:12:41;;;;;;;4.78;1.13;;;;;;;;;;5052987;28;20056;-73
2022/06/14 14:15:25;;;;;;;3.72;1.02;;;;;;;;;;5053555;28;20025;-73
2022/06/14 14:18:02;;;;;;;1.83;0.77;;;;;;;;;;5053377;28;20021;-73
2022/06/14 14:20:35;;;;;;;4.97;0.95;;;;;;;;;;5053586;28;20021;-73
2022/06/14 14:23:21;;;;;;;6.30;1.45;;;;;;;;;;5053640;28;20028;-73
2022/06/14 14:25:51;;;;;;;3.42;1.10;;;;;;;;;;5053246;28;20052;-72
2022/06/14 14:28:26;;;;;;;4.57;1.00;;;;;;;;;;5053289;28;20104;-73
2022/06/14 14:30:52;;;;;;;4.88;0.93;;;;;;;;;;5052258;28;20476;-73
2022/06/14 14:33:25;;;;;;;3.03;0.80;;;;;;;;;;5052432;28;20021;-73
2022/06/14 14:35:54;;;;;;;1.95;0.85;;;;;;;;;;5052288;28;20451;-73
2022/06/14 14:38:32;;;;;;;4.28;1.30;;;;;;;;;;5051019;28;20715;-71
2022/06/14 14:43:50;;;;;;;1.63;0.75;;;;;;;;;;5051473;28;20052;-71
2022/06/14 14:46:33;;;;;;;3.38;0.75;;;;;;;;;;5050517;28;20098;-72
2022/06/14 14:49:04;;;;;;;3.60;1.00;;;;;;;;;;5051566;28;20029;-72
2022/06/14 14:51:30;;;;;;;3.05;1.05;;;;;;;;;;5049609;28;20021;-72
2022/06/14 14:54:02;;;;;;;3.55;0.98;;;;;;;;;;5051654;28;20008;-72
2022/06/14 14:56:28;;;;;;;3.05;0.88;;;;;;;;;;5051472;28;20105;-72
2022/06/14 14:59:14;;;;;;;5.28;0.90;;;;;;;;;;5051753;28;20025;-72
2022/06/14 15:07:42;;;;;;;6.45;1.48;;;;;;;;;;5008908;28;20403;-72
2022/06/14 15:10:17;;;;;;;1.83;1.00;;;;;;;;;;5008773;28;20113;-74
2022/06/14 15:12:47;;;;;;;3.60;1.00;;;;;;;;;;5009284;28;21493;-72
2022/06/14 15:15:13;;;;;;;4.88;1.10;;;;;;;;;;5007033;28;20034;-73
2022/06/14 15:19:54;;;;;;;6.60;0.90;;;;;;;;;;5009311;28;20061;-73
2022/06/14 15:20:30;;;;;;;5.35;0.93;;;;;;;;;;5009040;28;20040;-73
2022/06/14 15:22:57;;;;;;;3.40;0.93;;;;;;;;;;5009396;28;20030;-73
2022/06/14 15:25:25;;;;;;;4.32;1.10;;;;;;;;;;5007054;28;20058;-73
2022/06/14 15:27:53;;;;;;;3.50;1.05;;;;;;;;;;5009272;28;20045;-73
2022/06/14 15:30:37;;;;;;;6.30;1.63;;;;;;;;;;5008577;28;20636;-74
2022/06/14 15:33:18;;;;;;;2.08;0.65;;;;;;;;;;5008766;28;20029;-74
2022/06/14 15:35:52;;;;;;;2.47;0.70;;;;;;;;;;5008493;28;20523;-73
2022/06/14 15:38:19;;;;;;;4.00;1.10;;;;;;;;;;5029380;28;20052;-73
2022/06/14 15:40:45;;;;;;;9.38;1.25;;;;;;;;;;5051512;28;20139;-74